Time;durP1;ratioP1;P1;durP2;ratioP2;P2;SDS_P1;SDS_P2;PMS_P1;PMS_P2;Temp;Humidity;BMP_temperature;BMP_pressure;BME280_temperature;BME280_humidity;BME280_pressure;Samples;Min_cycle;Max_cycle;Signal;HPM_P1;HPM_P2
2022/05/25 00:01:25;;;;;;;5.00;2.80;;;14.20;99.90;;;;;;5142023;27;20244;-73
2022/05/25 00:03:52;;;;;;;2.97;2.67;;;14.20;99.90;;;;;;5149693;27;20256;-74
2022/05/25 00:06:19;;;;;;;4.43;3.27;;;14.20;99.90;;;;;;5152385;27;20210;-73
2022/05/25 00:08:46;;;;;;;3.13;2.83;;;14.20;99.90;;;;;;5135847;27;20654;-73
2022/05/25 00:11:14;;;;;;;3.10;2.73;;;14.20;99.90;;;;;;5135805;27;20256;-73
2022/05/25 00:13:41;;;;;;;4.00;3.00;;;14.20;99.90;;;;;;5135629;27;20199;-73
2022/05/25 00:16:08;;;;;;;3.83;3.13;;;14.10;99.90;;;;;;5135543;27;20742;-75
2022/05/25 00:18:35;;;;;;;4.33;3.23;;;14.10;99.90;;;;;;5135683;27;20203;-73
2022/05/25 00:21:01;;;;;;;3.40;3.03;;;14.10;99.90;;;;;;5135886;27;20236;-73
2022/05/25 00:23:27;;;;;;;3.40;3.07;;;14.10;99.90;;;;;;5135541;27;20202;-73
2022/05/25 00:25:54;;;;;;;4.27;3.10;;;14.00;99.90;;;;;;5135386;27;20207;-73
2022/05/25 00:28:25;;;;;;;4.57;2.80;;;14.00;99.90;;;;;;5135294;27;20195;-73
2022/05/25 00:30:52;;;;;;;3.87;3.07;;;14.00;99.90;;;;;;5135449;27;20199;-73
2022/05/25 00:33:20;;;;;;;4.73;2.83;;;14.00;99.90;;;;;;5135354;27;20292;-73
2022/05/25 00:35:47;;;;;;;5.30;3.37;;;13.90;99.90;;;;;;5135430;27;20222;-73
2022/05/25 00:38:14;;;;;;;3.40;3.10;;;13.90;99.90;;;;;;5135364;27;20191;-73
2022/05/25 00:40:44;;;;;;;4.83;3.47;;;13.90;99.90;;;;;;5135101;27;20247;-72
2022/05/25 00:43:12;;;;;;;3.90;3.30;;;14.00;99.90;;;;;;5134915;27;20239;-73
2022/05/25 00:45:43;;;;;;;4.93;3.30;;;14.00;99.90;;;;;;5135158;27;20214;-73
2022/05/25 00:48:15;;;;;;;3.53;3.23;;;13.90;99.90;;;;;;5134176;27;20256;-73
2022/05/25 00:53:25;;;;;;;4.63;3.13;;;13.90;99.90;;;;;;5135022;27;20263;-73
2022/05/25 00:55:55;;;;;;;3.83;3.13;;;13.90;99.90;;;;;;5134490;27;20214;-73
2022/05/25 00:58:21;;;;;;;5.73;3.40;;;13.90;99.90;;;;;;5134836;27;20657;-73
2022/05/25 01:00:49;;;;;;;3.23;2.93;;;13.80;99.90;;;;;;5135053;27;20195;-74
2022/05/25 01:03:16;;;;;;;3.47;3.13;;;13.80;99.90;;;;;;5134542;27;20249;-73
2022/05/25 01:05:52;;;;;;;3.60;3.30;;;13.80;99.90;;;;;;5134510;27;20195;-73
2022/05/25 01:08:31;;;;;;;5.07;3.40;;;13.70;99.90;;;;;;5134403;27;20199;-73
2022/05/25 01:11:10;;;;;;;7.23;3.27;;;13.80;99.90;;;;;;5134440;27;20698;-73
2022/05/25 01:13:45;;;;;;;3.73;3.30;;;13.80;99.90;;;;;;5134525;27;20199;-73
2022/05/25 01:16:26;;;;;;;4.00;3.53;;;13.80;99.90;;;;;;5134382;27;20317;-73
2022/05/25 01:19:00;;;;;;;3.97;3.60;;;13.80;99.90;;;;;;5134367;27;20286;-73
2022/05/25 01:21:35;;;;;;;4.10;3.40;;;13.80;99.90;;;;;;5134527;27;20199;-73
2022/05/25 01:24:13;;;;;;;4.73;3.53;;;13.80;99.90;;;;;;5134689;27;20194;-73
2022/05/25 01:27:10;;;;;;;7.00;3.73;;;13.70;99.90;;;;;;5134611;27;20194;-73
2022/05/25 01:30:03;;;;;;;5.77;3.70;;;13.70;99.90;;;;;;5130719;27;20281;-73
2022/05/25 01:32:35;;;;;;;3.87;3.57;;;13.70;99.90;;;;;;5134242;27;20199;-73
2022/05/25 01:35:19;;;;;;;4.97;3.43;;;13.60;99.90;;;;;;5134267;27;20251;-73
2022/05/25 01:37:54;;;;;;;5.53;3.60;;;13.50;99.90;;;;;;5134391;27;20202;-73
2022/05/25 01:40:26;;;;;;;5.40;3.57;;;13.30;99.90;;;;;;5134134;27;20198;-73
2022/05/25 01:42:57;;;;;;;5.07;3.80;;;13.30;99.90;;;;;;5134200;27;20248;-73
2022/05/25 01:45:29;;;;;;;7.03;3.80;;;13.40;99.90;;;;;;5133987;27;20199;-72
2022/05/25 01:47:59;;;;;;;4.20;3.40;;;13.40;99.90;;;;;;5134063;27;20203;-73
2022/05/25 01:50:31;;;;;;;6.03;3.37;;;13.30;99.90;;;;;;5134224;27;20210;-73
2022/05/25 01:53:02;;;;;;;4.13;3.17;;;13.20;99.90;;;;;;5115633;27;20203;-73
2022/05/25 01:55:33;;;;;;;6.73;3.13;;;13.20;99.90;;;;;;5133993;27;20232;-73
2022/05/25 01:58:04;;;;;;;3.83;3.40;;;13.10;99.90;;;;;;5133972;27;20198;-73
2022/05/25 02:00:35;;;;;;;4.13;3.33;;;13.10;99.90;;;;;;5133791;27;20248;-74
2022/05/25 02:05:56;;;;;;;4.13;3.30;;;13.10;99.90;;;;;;5138708;28;20269;-73
2022/05/25 02:08:31;;;;;;;4.43;3.50;;;13.00;99.90;;;;;;5134537;28;20239;-73
2022/05/25 02:11:11;;;;;;;4.63;3.17;;;12.90;99.90;;;;;;5134228;28;20270;-72
2022/05/25 02:13:51;;;;;;;4.00;3.10;;;12.90;99.90;;;;;;5134787;28;20199;-73
2022/05/25 02:16:37;;;;;;;3.20;3.00;;;12.80;99.90;;;;;;5133733;28;20287;-74
2022/05/25 02:19:13;;;;;;;3.90;3.30;;;12.70;99.90;;;;;;5133673;28;20191;-73
2022/05/25 02:21:46;;;;;;;4.20;3.60;;;12.70;99.90;;;;;;5133709;28;20703;-73
2022/05/25 02:24:20;;;;;;;4.73;2.90;;;12.70;99.90;;;;;;5133822;28;20291;-73
2022/05/25 02:26:51;;;;;;;5.10;2.53;;;12.70;99.90;;;;;;5133643;28;20209;-73
2022/05/25 02:29:23;;;;;;;3.33;3.03;;;12.70;99.90;;;;;;5133703;28;20202;-73
2022/05/25 02:31:57;;;;;;;4.30;2.90;;;12.80;99.90;;;;;;5133664;28;20198;-73
2022/05/25 02:34:26;;;;;;;5.03;2.70;;;12.80;99.90;;;;;;5133709;28;20191;-73
2022/05/25 02:36:55;;;;;;;3.23;2.90;;;12.90;99.90;;;;;;5133390;28;20226;-73
2022/05/25 02:39:23;;;;;;;3.40;2.90;;;12.90;99.90;;;;;;5133227;28;20203;-73
2022/05/25 02:41:52;;;;;;;3.97;2.97;;;12.90;99.90;;;;;;5133341;28;20243;-73
2022/05/25 02:44:18;;;;;;;4.20;2.43;;;12.80;99.90;;;;;;5133206;28;20248;-73
2022/05/25 02:46:45;;;;;;;2.90;2.43;;;12.80;99.90;;;;;;5133515;28;20199;-73
2022/05/25 02:49:15;;;;;;;3.20;2.90;;;12.70;99.90;;;;;;5133599;28;20199;-73
2022/05/25 02:51:42;;;;;;;3.90;2.73;;;12.80;99.90;;;;;;5133608;28;20202;-73
2022/05/25 02:54:10;;;;;;;4.13;2.53;;;12.80;99.90;;;;;;5133608;28;20263;-74
2022/05/25 02:56:37;;;;;;;6.03;2.63;;;12.90;99.90;;;;;;5133339;28;20317;-74
2022/05/25 02:59:04;;;;;;;2.63;2.10;;;12.90;99.90;;;;;;5134824;28;20224;-72
2022/05/25 03:01:31;;;;;;;3.80;2.20;;;12.90;99.90;;;;;;5133871;28;20195;-73
2022/05/25 03:03:57;;;;;;;4.93;2.50;;;12.90;99.90;;;;;;5133274;28;20223;-73
2022/05/25 03:06:25;;;;;;;3.73;2.30;;;12.90;99.90;;;;;;5142665;28;20180;-73
2022/05/25 03:08:52;;;;;;;6.07;2.30;;;12.90;99.90;;;;;;5148384;28;20195;-72
2022/05/25 03:11:19;;;;;;;3.77;2.47;;;12.80;99.90;;;;;;5149842;27;20203;-72
2022/05/25 03:13:48;;;;;;;3.63;2.40;;;12.80;99.90;;;;;;5152061;27;20202;-74
2022/05/25 03:16:16;;;;;;;4.00;2.53;;;12.80;99.90;;;;;;5148309;27;20306;-73
2022/05/25 03:18:43;;;;;;;3.60;2.27;;;12.70;99.90;;;;;;5147523;27;20263;-73
2022/05/25 03:21:10;;;;;;;3.80;2.80;;;12.70;99.90;;;;;;5148777;27;20291;-72
2022/05/25 03:23:38;;;;;;;3.03;2.50;;;12.60;99.90;;;;;;5136829;27;20199;-73
2022/05/25 03:26:06;;;;;;;2.97;2.60;;;12.60;99.90;;;;;;5137236;27;20608;-73
2022/05/25 03:28:32;;;;;;;4.63;2.53;;;12.60;99.90;;;;;;5136862;27;20190;-73
2022/05/25 03:30:59;;;;;;;4.43;2.77;;;12.60;99.90;;;;;;5136633;27;20199;-73
2022/05/25 03:33:26;;;;;;;7.27;2.80;;;12.60;99.90;;;;;;5136395;27;20203;-73
2022/05/25 03:35:53;;;;;;;4.40;2.40;;;12.60;99.90;;;;;;5136310;27;20639;-73
2022/05/25 03:38:20;;;;;;;5.23;2.63;;;12.60;99.90;;;;;;5136160;27;20195;-74
2022/05/25 03:40:48;;;;;;;2.73;2.50;;;12.60;99.90;;;;;;5136188;27;20195;-73
2022/05/25 03:43:18;;;;;;;2.63;2.40;;;12.60;99.90;;;;;;5136315;27;20232;-73
2022/05/25 03:45:44;;;;;;;3.47;2.83;;;12.50;99.90;;;;;;5136282;27;20195;-73
2022/05/25 03:48:11;;;;;;;6.40;3.20;;;12.50;99.90;;;;;;5136035;27;20202;-73
2022/05/25 03:50:39;;;;;;;3.67;2.73;;;12.50;99.90;;;;;;5136143;27;20243;-73
2022/05/25 03:53:06;;;;;;;4.17;2.93;;;12.50;99.90;;;;;;5135991;27;20531;-73
2022/05/25 03:55:33;;;;;;;5.37;2.90;;;12.60;99.90;;;;;;5136155;27;20195;-73
2022/05/25 03:58:02;;;;;;;5.03;2.80;;;12.50;99.90;;;;;;5136093;27;20270;-73
2022/05/25 04:00:29;;;;;;;3.50;2.70;;;12.50;99.90;;;;;;5136217;27;20282;-73
2022/05/25 04:02:59;;;;;;;4.30;2.70;;;12.50;99.90;;;;;;5135792;27;20230;-74
2022/05/25 04:05:27;;;;;;;4.27;2.67;;;12.40;99.90;;;;;;5136028;27;20202;-73
2022/05/25 04:07:56;;;;;;;4.27;2.77;;;12.40;99.90;;;;;;5136094;27;20305;-73
2022/05/25 04:10:23;;;;;;;3.97;2.77;;;12.40;99.90;;;;;;5135913;27;20203;-73
2022/05/25 04:12:50;;;;;;;3.97;3.00;;;12.40;99.90;;;;;;5135725;27;20199;-73
2022/05/25 04:15:20;;;;;;;3.10;2.60;;;12.30;99.90;;;;;;5135664;27;20317;-74
2022/05/25 04:17:47;;;;;;;4.60;3.20;;;12.40;99.90;;;;;;5135484;27;20632;-74
2022/05/25 04:20:15;;;;;;;3.90;3.00;;;12.40;99.90;;;;;;5135483;27;20559;-73
2022/05/25 04:22:42;;;;;;;4.77;2.77;;;12.40;99.90;;;;;;5136009;27;20195;-73
2022/05/25 04:25:12;;;;;;;4.23;2.83;;;12.30;99.90;;;;;;5135705;27;20195;-74
2022/05/25 04:27:40;;;;;;;3.17;2.87;;;12.40;99.90;;;;;;5135600;27;20198;-74
2022/05/25 04:30:10;;;;;;;5.00;2.87;;;12.50;99.90;;;;;;5135497;27;20225;-73
2022/05/25 04:32:38;;;;;;;4.90;3.10;;;12.60;99.90;;;;;;5135466;27;20651;-72
2022/05/25 04:35:05;;;;;;;3.63;2.67;;;12.60;99.90;;;;;;5135553;27;20203;-73
2022/05/25 04:37:49;;;;;;;5.30;2.97;;;12.50;99.90;;;;;;5135309;27;20299;-74
2022/05/25 04:40:21;;;;;;;3.40;3.10;;;12.50;99.90;;;;;;5135138;27;20550;-74
2022/05/25 04:42:48;;;;;;;3.53;3.23;;;12.50;99.90;;;;;;5135338;27;20613;-74
2022/05/25 04:45:15;;;;;;;4.43;3.43;;;12.60;99.90;;;;;;5135287;27;20195;-73
2022/05/25 04:47:43;;;;;;;4.37;2.97;;;12.60;99.90;;;;;;5135151;27;20272;-73
2022/05/25 04:50:12;;;;;;;3.80;3.23;;;12.60;99.90;;;;;;5135144;27;20203;-77
2022/05/25 04:52:40;;;;;;;3.20;2.90;;;12.60;99.90;;;;;;5135062;27;20191;-72
2022/05/25 04:55:08;;;;;;;3.47;2.93;;;12.60;99.90;;;;;;5134723;27;20616;-73
2022/05/25 04:57:35;;;;;;;4.90;3.30;;;12.70;99.90;;;;;;5134739;27;20694;-73
2022/05/25 05:00:05;;;;;;;7.50;3.70;;;12.80;99.90;;;;;;5134944;27;20199;-73
2022/05/25 05:02:32;;;;;;;4.30;2.90;;;12.80;99.90;;;;;;5134446;27;20701;-76
2022/05/25 05:05:00;;;;;;;6.53;3.43;;;12.90;99.90;;;;;;5134775;27;20240;-75
2022/05/25 05:07:31;;;;;;;6.07;3.70;;;12.90;99.90;;;;;;5134898;27;20199;-75
2022/05/25 05:09:58;;;;;;;3.37;2.83;;;12.90;99.90;;;;;;5134741;27;20234;-74
2022/05/25 05:12:25;;;;;;;3.43;3.03;;;12.90;99.90;;;;;;5134577;27;20203;-74
2022/05/25 05:14:52;;;;;;;6.37;2.97;;;12.90;99.90;;;;;;5134513;27;20248;-74
2022/05/25 05:17:19;;;;;;;4.83;3.30;;;12.90;99.90;;;;;;5135699;27;20267;-74
2022/05/25 05:19:45;;;;;;;4.30;3.13;;;12.90;99.90;;;;;;5140865;27;20199;-74
2022/05/25 05:22:14;;;;;;;3.73;2.80;;;12.90;99.90;;;;;;5138149;27;20195;-74
2022/05/25 05:24:40;;;;;;;3.23;2.93;;;12.80;99.90;;;;;;5134852;27;20860;-73
2022/05/25 05:27:08;;;;;;;2.77;2.57;;;12.80;99.90;;;;;;5134400;27;20199;-73
2022/05/25 05:29:35;;;;;;;6.23;3.27;;;12.70;99.90;;;;;;5134147;27;20199;-74
2022/05/25 05:32:01;;;;;;;4.63;2.90;;;12.70;99.90;;;;;;5133967;27;20191;-73
2022/05/25 05:34:28;;;;;;;5.67;3.00;;;12.70;99.90;;;;;;5133410;27;20256;-73
2022/05/25 05:37:00;;;;;;;7.13;3.27;;;12.70;99.90;;;;;;5133857;27;20218;-73
2022/05/25 05:39:32;;;;;;;11.27;3.23;;;12.70;99.90;;;;;;5133992;27;20220;-73
2022/05/25 05:42:03;;;;;;;3.20;2.70;;;12.80;99.90;;;;;;5133857;27;20243;-74
2022/05/25 05:44:33;;;;;;;3.20;2.80;;;12.80;99.90;;;;;;5133639;27;20580;-73
2022/05/25 05:47:01;;;;;;;3.73;2.73;;;12.80;99.90;;;;;;5133576;27;20543;-74
2022/05/25 05:49:28;;;;;;;3.67;2.87;;;12.80;99.90;;;;;;5133575;27;20194;-73
2022/05/25 05:51:55;;;;;;;4.37;2.27;;;12.90;99.90;;;;;;5133900;27;20195;-73
2022/05/25 05:54:23;;;;;;;6.43;2.63;;;12.90;99.90;;;;;;5115189;27;20195;-73
2022/05/25 05:56:51;;;;;;;4.10;2.40;;;13.00;99.90;;;;;;5133672;27;20219;-73
2022/05/25 05:59:17;;;;;;;3.57;2.10;;;13.00;99.90;;;;;;5115733;28;20203;-74
2022/05/25 06:01:45;;;;;;;3.53;2.20;;;13.10;99.90;;;;;;5131044;27;20202;-74
2022/05/25 06:04:11;;;;;;;2.67;2.20;;;13.20;99.90;;;;;;5132303;27;20199;-74
2022/05/25 06:06:38;;;;;;;8.67;2.40;;;13.30;99.90;;;;;;5133708;27;20199;-75
2022/05/25 06:09:05;;;;;;;4.60;2.37;;;13.40;99.90;;;;;;5135289;28;20203;-76
2022/05/25 06:11:34;;;;;;;5.93;2.13;;;13.40;99.90;;;;;;5148842;28;20208;-73
2022/05/25 06:14:02;;;;;;;3.50;2.20;;;13.40;99.90;;;;;;5146847;28;20197;-73
2022/05/25 06:19:29;;;;;;;5.97;1.90;;;13.40;99.90;;;;;;5153148;28;20198;-74
2022/05/25 06:21:58;;;;;;;3.07;2.00;;;13.40;99.90;;;;;;5157134;28;20195;-75
2022/05/25 06:24:25;;;;;;;4.10;2.20;;;13.50;99.90;;;;;;5157326;28;20296;-74
2022/05/25 06:26:52;;;;;;;4.83;2.13;;;13.70;99.90;;;;;;5122239;28;20198;-75
2022/05/25 06:29:21;;;;;;;2.97;2.00;;;13.90;99.90;;;;;;5134342;28;20225;-75
2022/05/25 06:31:48;;;;;;;3.67;2.40;;;14.00;99.90;;;;;;5134082;28;20209;-74
2022/05/25 06:34:15;;;;;;;5.93;2.20;;;14.20;99.90;;;;;;5133658;28;20209;-75
2022/05/25 06:36:42;;;;;;;2.20;1.90;;;14.30;99.90;;;;;;5133707;28;20191;-74
2022/05/25 06:39:09;;;;;;;3.30;1.80;;;14.50;99.90;;;;;;5133508;28;20286;-74
2022/05/25 06:41:36;;;;;;;3.10;2.00;;;14.50;99.90;;;;;;5133527;28;20195;-75
2022/05/25 06:44:03;;;;;;;3.03;2.00;;;14.50;99.90;;;;;;5133553;28;20225;-73
2022/05/25 06:46:31;;;;;;;6.17;2.00;;;14.90;99.90;;;;;;5134793;27;20224;-75
2022/05/25 06:48:58;;;;;;;2.40;2.20;;;14.90;99.90;;;;;;5137463;27;20256;-75
2022/05/25 06:51:27;;;;;;;2.63;1.77;;;15.10;99.90;;;;;;5137221;27;20675;-74
2022/05/25 06:53:53;;;;;;;5.20;2.17;;;14.80;99.90;;;;;;5137250;27;20272;-75
2022/05/25 06:56:22;;;;;;;2.93;2.00;;;14.70;99.90;;;;;;5137189;27;20199;-75
2022/05/25 06:58:50;;;;;;;4.67;2.00;;;14.60;99.90;;;;;;5118737;27;20219;-75
2022/05/25 07:01:17;;;;;;;5.10;1.97;;;14.60;99.90;;;;;;5137104;27;20236;-75
2022/05/25 07:03:46;;;;;;;3.87;2.30;;;14.50;99.90;;;;;;5136983;27;20223;-72
2022/05/25 07:06:14;;;;;;;4.23;1.90;;;14.30;99.90;;;;;;5137148;27;20191;-73
2022/05/25 07:08:41;;;;;;;3.53;2.17;;;14.20;99.90;;;;;;5136947;27;20201;-73
2022/05/25 07:11:09;;;;;;;4.00;1.90;;;14.10;99.90;;;;;;5137155;27;20225;-73
2022/05/25 07:13:36;;;;;;;4.70;1.73;;;14.20;99.90;;;;;;5136841;27;20230;-74
2022/05/25 07:16:05;;;;;;;5.07;2.10;;;14.30;99.90;;;;;;5136772;27;20650;-72
2022/05/25 07:18:32;;;;;;;3.57;1.90;;;14.40;99.90;;;;;;5136597;27;20227;-74
2022/05/25 07:21:06;;;;;;;2.60;1.80;;;14.40;99.90;;;;;;5136703;27;20195;-74
2022/05/25 07:23:33;;;;;;;4.20;2.00;;;14.40;99.90;;;;;;5136704;27;20199;-74
2022/05/25 07:26:00;;;;;;;2.53;1.93;;;14.50;99.90;;;;;;5136666;27;20203;-74
2022/05/25 07:28:26;;;;;;;3.80;1.90;;;14.70;99.90;;;;;;5136346;27;20228;-74
2022/05/25 07:30:57;;;;;;;2.03;1.67;;;14.80;99.90;;;;;;5136403;27;20191;-73
2022/05/25 07:33:23;;;;;;;4.40;1.80;;;14.90;99.90;;;;;;5136547;27;20195;-73
2022/05/25 07:35:50;;;;;;;2.33;1.80;;;14.90;99.90;;;;;;5136277;27;20199;-73
2022/05/25 07:38:18;;;;;;;5.27;1.80;;;15.10;99.90;;;;;;5136505;27;20356;-73
2022/05/25 07:40:46;;;;;;;4.03;2.07;;;15.10;99.90;;;;;;5136241;27;20199;-73
2022/05/25 07:43:16;;;;;;;4.37;1.80;;;15.20;99.90;;;;;;5136007;27;20244;-73
2022/05/25 07:45:45;;;;;;;3.30;1.73;;;15.20;99.90;;;;;;5136194;27;20199;-73
2022/05/25 07:48:12;;;;;;;2.50;1.67;;;15.30;99.90;;;;;;5136049;27;20236;-73
2022/05/25 07:50:39;;;;;;;1.60;1.50;;;15.50;99.90;;;;;;5136223;27;20191;-73
2022/05/25 07:53:55;;;;;;;2.43;2.00;;;15.60;99.90;;;;;;5136123;27;20194;-75
2022/05/25 07:55:55;;;;;;;2.53;1.90;;;15.90;99.90;;;;;;5135788;27;20197;-73
2022/05/25 07:58:22;;;;;;;2.13;1.70;;;15.90;99.90;;;;;;5135462;27;20690;-73
2022/05/25 08:00:51;;;;;;;3.03;1.90;;;16.00;99.90;;;;;;5117632;27;20616;-73
2022/05/25 08:06:02;;;;;;;3.43;1.90;;;16.50;99.90;;;;;;5136046;27;20302;-73
2022/05/25 08:08:29;;;;;;;2.90;1.60;;;16.90;99.90;;;;;;5135671;27;20684;-74
2022/05/25 08:11:02;;;;;;;3.07;2.00;;;17.10;99.90;;;;;;5135572;27;20195;-74
2022/05/25 08:13:30;;;;;;;3.00;2.10;;;17.50;99.90;;;;;;5135811;27;20191;-74
2022/05/25 08:15:57;;;;;;;5.65;2.00;;;17.70;99.90;;;;;;5135656;27;20231;-74
2022/05/25 08:18:23;;;;;;;5.10;2.15;;;18.10;99.90;;;;;;5135429;27;20649;-74
2022/05/25 08:20:50;;;;;;;2.30;1.80;;;18.10;99.90;;;;;;5135479;27;20195;-74
2022/05/25 08:23:18;;;;;;;3.15;1.80;;;18.00;99.90;;;;;;5135399;27;20191;-74
2022/05/25 08:25:45;;;;;;;1.83;1.60;;;18.10;99.90;;;;;;5135260;27;20191;-74
2022/05/25 08:28:13;;;;;;;3.28;1.60;;;17.70;99.90;;;;;;5135181;27;20588;-74
2022/05/25 08:30:42;;;;;;;3.45;1.60;;;17.40;99.90;;;;;;5135327;27;20195;-74
2022/05/25 08:33:10;;;;;;;3.95;2.00;;;17.60;99.90;;;;;;5135219;27;20256;-74
2022/05/25 08:35:37;;;;;;;1.90;1.73;;;17.60;99.90;;;;;;5135016;27;20264;-74
2022/05/25 08:38:04;;;;;;;4.75;1.58;;;17.90;99.90;;;;;;5135100;27;20624;-74
2022/05/25 08:40:33;;;;;;;3.53;1.60;;;18.20;99.90;;;;;;5135045;27;20248;-74
2022/05/25 08:43:03;;;;;;;4.50;1.60;;;17.70;99.90;;;;;;5135229;27;20195;-74
2022/05/25 08:45:36;;;;;;;1.73;1.50;;;18.40;99.90;;;;;;5135117;27;20263;-74
2022/05/25 08:48:06;;;;;;;2.45;1.65;;;19.10;99.90;;;;;;5134880;27;20205;-74
2022/05/25 08:50:33;;;;;;;3.40;1.83;;;19.30;99.90;;;;;;5135211;27;20236;-74
2022/05/25 08:53:02;;;;;;;2.17;1.48;;;19.60;99.90;;;;;;5135077;27;20203;-74
2022/05/25 08:55:58;;;;;;;2.92;1.58;;;20.20;96.90;;;;;;5134950;27;20199;-74
2022/05/25 08:58:31;;;;;;;3.42;1.90;;;18.50;97.30;;;;;;5134588;27;20547;-74
2022/05/25 09:01:02;;;;;;;2.67;1.55;;;18.60;99.40;;;;;;5134696;27;20199;-74
2022/05/25 09:03:36;;;;;;;2.25;1.35;;;18.40;99.90;;;;;;5134537;27;20226;-74
2022/05/25 09:06:09;;;;;;;2.25;1.30;;;17.90;97.60;;;;;;5134987;27;20190;-74
2022/05/25 09:08:45;;;;;;;3.63;2.10;;;18.00;96.40;;;;;;5133981;27;20244;-74
2022/05/25 09:11:16;;;;;;;4.18;1.92;;;18.50;97.70;;;;;;5134870;27;20247;-74
2022/05/25 09:13:47;;;;;;;2.65;1.50;;;18.60;96.90;;;;;;5134690;27;20600;-74
2022/05/25 09:16:21;;;;;;;3.88;1.55;;;18.30;97.30;;;;;;5134775;27;20247;-74
2022/05/25 09:18:58;;;;;;;2.55;2.10;;;18.40;99.70;;;;;;5134688;27;20271;-74
2022/05/25 09:21:28;;;;;;;3.75;1.90;;;18.60;99.00;;;;;;5134706;27;20195;-75
2022/05/25 09:23:57;;;;;;;2.67;1.85;;;18.90;97.80;;;;;;5135219;27;20240;-75
2022/05/25 09:26:25;;;;;;;2.03;1.90;;;19.40;95.10;;;;;;5157038;27;20183;-74
2022/05/25 09:28:55;;;;;;;3.25;2.08;;;19.20;92.30;;;;;;5150919;27;20199;-73
2022/05/25 09:31:31;;;;;;;3.92;2.08;;;19.60;92.40;;;;;;5148042;27;20711;-73
2022/05/25 09:34:00;;;;;;;2.55;1.90;;;19.10;93.40;;;;;;5139870;27;20202;-73
2022/05/25 09:36:30;;;;;;;5.05;2.25;;;18.70;95.60;;;;;;5140201;27;20651;-74
2022/05/25 09:39:03;;;;;;;3.17;2.13;;;19.10;94.60;;;;;;5140203;27;20218;-73
2022/05/25 09:41:31;;;;;;;2.28;1.67;;;18.60;96.30;;;;;;5135619;27;20289;-73
2022/05/25 09:44:00;;;;;;;2.28;1.83;;;18.40;96.60;;;;;;5134066;27;20198;-74
2022/05/25 09:46:31;;;;;;;2.25;1.90;;;18.90;96.70;;;;;;5134040;27;20191;-74
2022/05/25 09:49:02;;;;;;;2.13;1.65;;;18.80;95.20;;;;;;5134144;27;20191;-74
2022/05/25 09:51:35;;;;;;;3.00;2.13;;;19.60;93.60;;;;;;5134067;27;20206;-74
2022/05/25 09:54:05;;;;;;;1.85;1.70;;;19.60;95.20;;;;;;5134063;27;20263;-74
2022/05/25 09:56:38;;;;;;;4.65;1.80;;;20.80;94.70;;;;;;5134024;27;20198;-74
2022/05/25 09:59:07;;;;;;;3.97;1.60;;;20.80;88.50;;;;;;5133651;27;20366;-74
2022/05/25 10:01:45;;;;;;;2.47;1.40;;;21.00;81.50;;;;;;5133785;27;20285;-74
2022/05/25 10:04:16;;;;;;;1.85;1.50;;;21.30;79.50;;;;;;5133612;27;20325;-74
2022/05/25 10:06:50;;;;;;;2.22;1.65;;;21.30;77.20;;;;;;5133829;27;20202;-74
2022/05/25 10:09:20;;;;;;;3.17;1.65;;;21.30;80.40;;;;;;5133868;28;20203;-74
2022/05/25 10:11:49;;;;;;;2.60;1.50;;;21.10;81.70;;;;;;5133745;28;20259;-74
2022/05/25 10:14:22;;;;;;;6.13;1.23;;;20.50;80.70;;;;;;5133467;28;20195;-74
2022/05/25 10:16:50;;;;;;;3.00;1.25;;;19.90;74.20;;;;;;5133723;28;20251;-74
2022/05/25 10:19:20;;;;;;;2.70;1.20;;;19.90;71.60;;;;;;5133582;28;20283;-74
2022/05/25 10:21:50;;;;;;;1.50;1.20;;;20.50;66.90;;;;;;5137092;27;20199;-74
2022/05/25 10:24:24;;;;;;;1.95;1.20;;;21.20;66.00;;;;;;5137751;27;20195;-74
2022/05/25 10:26:53;;;;;;;3.53;1.33;;;21.50;61.70;;;;;;5137669;27;20289;-74
2022/05/25 10:37:58;;;;;;;2.83;1.40;;;22.00;61.20;;;;;;5137810;27;20205;-74
2022/05/25 10:40:25;;;;;;;2.78;1.25;;;22.50;64.10;;;;;;5137329;27;20650;-74
2022/05/25 10:42:58;;;;;;;3.83;1.30;;;21.30;63.00;;;;;;5137476;27;20194;-74
2022/05/25 10:45:32;;;;;;;2.88;1.60;;;20.20;61.40;;;;;;5137171;27;20240;-75
2022/05/25 10:48:08;;;;;;;3.30;1.67;;;19.40;67.70;;;;;;5137308;27;20727;-75
2022/05/25 10:50:42;;;;;;;2.40;1.45;;;19.50;73.20;;;;;;5119639;27;20669;-75
2022/05/25 10:53:16;;;;;;;2.75;1.70;;;19.30;71.60;;;;;;5137154;27;20531;-75
2022/05/25 10:55:52;;;;;;;2.25;1.40;;;20.80;67.00;;;;;;5136941;27;20531;-75
2022/05/25 10:58:36;;;;;;;1.80;1.40;;;21.60;60.00;;;;;;5137239;27;20271;-75
2022/05/25 11:01:18;;;;;;;4.53;1.63;;;21.30;59.10;;;;;;5137133;27;20199;-75
2022/05/25 11:04:11;;;;;;;1.65;1.38;;;21.60;59.20;;;;;;5136767;27;20227;-75
2022/05/25 11:07:02;;;;;;;2.28;1.45;;;21.70;56.70;;;;;;5136526;27;20224;-75
2022/05/25 11:10:07;;;;;;;1.77;1.33;;;21.70;53.20;;;;;;5137093;27;20650;-75
2022/05/25 11:12:40;;;;;;;1.92;1.20;;;22.30;51.00;;;;;;5136681;27;20205;-75
2022/05/25 11:15:15;;;;;;;3.03;1.40;;;21.90;51.70;;;;;;5136831;27;20264;-75
2022/05/25 11:17:55;;;;;;;1.27;1.13;;;21.70;51.80;;;;;;5136550;27;20198;-75
2022/05/25 11:20:32;;;;;;;3.10;1.27;;;22.90;51.40;;;;;;5136577;27;20219;-76
2022/05/25 11:23:23;;;;;;;4.80;1.40;;;23.40;47.10;;;;;;5136537;27;20248;-75
2022/05/25 11:26:05;;;;;;;1.63;1.20;;;23.50;44.70;;;;;;5136527;27;20244;-76
2022/05/25 11:28:44;;;;;;;1.48;1.15;;;24.30;44.30;;;;;;5136468;27;20592;-76
2022/05/25 11:31:23;;;;;;;2.42;1.50;;;24.90;42.60;;;;;;5136348;27;20202;-74
2022/05/25 11:34:15;;;;;;;1.48;1.33;;;23.50;44.60;;;;;;5136017;27;20677;-73
2022/05/25 11:37:14;;;;;;;2.05;1.50;;;22.50;46.60;;;;;;5136424;27;20248;-76
2022/05/25 11:39:51;;;;;;;2.20;1.35;;;21.50;47.20;;;;;;5136263;27;20222;-75
2022/05/25 11:42:39;;;;;;;1.65;1.20;;;21.50;50.10;;;;;;5136472;27;20228;-76
2022/05/25 11:45:24;;;;;;;2.17;1.25;;;21.60;48.70;;;;;;5136429;27;20199;-76
2022/05/25 11:48:06;;;;;;;2.28;1.50;;;23.10;49.50;;;;;;5136170;27;20199;-74
2022/05/25 11:50:38;;;;;;;3.65;1.40;;;23.80;44.70;;;;;;5136048;27;20651;-75
2022/05/25 11:53:22;;;;;;;3.22;1.10;;;25.00;43.70;;;;;;5135964;27;20654;-74
2022/05/25 11:55:59;;;;;;;1.73;1.30;;;25.00;41.80;;;;;;5136161;27;20596;-75
2022/05/25 11:58:34;;;;;;;1.75;1.30;;;24.60;42.60;;;;;;5135654;27;20214;-74
2022/05/25 12:01:11;;;;;;;2.65;1.50;;;23.90;42.80;;;;;;5136121;27;20733;-74
2022/05/25 12:04:05;;;;;;;6.80;1.40;;;23.10;44.00;;;;;;5135676;27;20226;-75
2022/05/25 12:07:00;;;;;;;5.28;1.67;;;25.80;41.50;;;;;;5135786;27;20199;-74
2022/05/25 12:09:47;;;;;;;2.42;1.30;;;23.70;41.50;;;;;;5135875;27;20198;-76
2022/05/25 12:12:20;;;;;;;3.30;1.50;;;25.10;43.60;;;;;;5135757;27;20199;-76
2022/05/25 12:14:59;;;;;;;3.35;1.30;;;25.80;40.80;;;;;;5135589;27;20234;-76
2022/05/25 12:17:34;;;;;;;3.20;1.33;;;25.70;39.00;;;;;;5135574;27;20603;-76
2022/05/25 12:20:03;;;;;;;2.70;1.25;;;23.60;40.00;;;;;;5135393;27;20230;-75
2022/05/25 12:22:33;;;;;;;1.98;1.10;;;24.70;40.10;;;;;;5135370;27;20199;-75
2022/05/25 12:25:05;;;;;;;2.00;1.15;;;26.00;36.30;;;;;;5135560;27;20604;-75
2022/05/25 12:27:36;;;;;;;1.98;1.38;;;26.40;34.60;;;;;;5135138;27;20706;-75
2022/05/25 12:30:07;;;;;;;2.38;1.52;;;26.90;34.60;;;;;;5135167;27;20206;-75
2022/05/25 12:32:36;;;;;;;2.05;1.10;;;27.80;33.40;;;;;;5135340;27;20462;-75
2022/05/25 12:35:06;;;;;;;1.30;1.20;;;26.00;32.60;;;;;;5135297;27;20240;-75
2022/05/25 12:37:36;;;;;;;2.15;1.10;;;24.60;32.90;;;;;;5136415;27;20203;-75
2022/05/25 12:40:07;;;;;;;4.00;1.20;;;24.20;34.00;;;;;;5138860;27;20222;-75
2022/05/25 12:42:39;;;;;;;2.83;1.20;;;24.60;34.90;;;;;;5157200;27;20185;-74
2022/05/25 12:50:43;;;;;;;2.35;1.40;;;25.70;32.60;;;;;;5155643;27;20566;-76
2022/05/25 12:53:30;;;;;;;3.22;1.30;;;25.10;32.30;;;;;;5153484;27;20191;-75
2022/05/25 12:56:00;;;;;;;2.80;1.27;;;24.90;33.50;;;;;;5148062;27;20281;-75
2022/05/25 12:58:44;;;;;;;2.95;1.25;;;26.00;32.90;;;;;;5136487;27;20199;-77
2022/05/25 13:01:36;;;;;;;3.50;1.50;;;26.00;30.80;;;;;;5135965;27;20202;-76
2022/05/25 13:04:40;;;;;;;3.30;1.40;;;27.50;30.00;;;;;;5134255;27;20227;-76
2022/05/25 13:07:37;;;;;;;2.85;1.23;;;26.10;31.80;;;;;;5134528;27;20198;-75
2022/05/25 13:10:10;;;;;;;4.50;1.10;;;27.60;31.40;;;;;;5134464;27;20195;-76
2022/05/25 13:12:52;;;;;;;3.85;1.25;;;27.10;30.60;;;;;;5134706;27;20240;-77
2022/05/25 13:15:39;;;;;;;7.38;1.27;;;27.00;30.40;;;;;;5134360;27;20203;-76
2022/05/25 13:18:09;;;;;;;1.42;1.10;;;27.40;30.00;;;;;;5134412;27;20252;-76
2022/05/25 13:20:59;;;;;;;3.80;1.35;;;29.20;28.90;;;;;;5134333;27;20590;-76
2022/05/25 13:24:03;;;;;;;4.20;1.20;;;29.60;26.80;;;;;;5134660;27;20195;-76
2022/05/25 13:26:42;;;;;;;3.20;1.20;;;26.60;26.20;;;;;;5134607;27;20202;-76
2022/05/25 13:29:19;;;;;;;2.00;1.00;;;26.00;25.80;;;;;;5134294;27;20272;-76
2022/05/25 13:31:49;;;;;;;4.88;1.15;;;25.40;26.60;;;;;;5134246;27;20195;-76
2022/05/25 13:34:19;;;;;;;2.85;1.00;;;26.30;27.20;;;;;;5133976;27;20650;-76
2022/05/25 13:36:51;;;;;;;1.25;1.10;;;27.10;26.30;;;;;;5134035;27;20195;-76